Flight Track Log - Related Links

Times and Time Zones

All times are in EDT time to prevent confusion due to time zone crossing. See the N638SF flight status page for this flight to view local times or setup timezone preferences in your user account.

Time Position Orientation Groundspeed Altitude Reporting Facility
EDT Latitude Longitude Course Direction KTS MPH feet Rate Location/Type
Fri 11:40:28 AM 42.6656 -83.3928 85° East 191 220 1,600  Level Cleveland Center
Fri 11:41:12 AM 42.6689 -83.3392 85° East 189 217 3,000 2,227 Climbing Cleveland Center
Fri 11:42:05 AM 42.6831 -83.2722 74° East 236 272 5,200 2,500 Climbing Cleveland Center
Fri 11:43:12 AM 42.6875 -83.1650 87° East 259 298 8,000 2,787 Climbing Cleveland Center
Fri 11:44:12 AM 42.6542 -83.0761 117° Southeast 254 292 11,100 2,350 Climbing Cleveland Center
Fri 11:45:12 AM 42.5728 -83.0728 178° South 227 261 12,700 1,850 Climbing Cleveland Center
Fri 11:46:12 AM 42.4764 -83.1000 192° South 268 308 14,800 1,900 Climbing Cleveland Center
Fri 11:47:12 AM 42.3967 -83.1222 192° South 322 371 16,500 1,850 Climbing Cleveland Center
Fri 11:48:12 AM 42.2875 -83.1542 192° South 351 404 18,500 2,100 Climbing Cleveland Center
Fri 11:49:12 AM 42.1886 -83.1978 198° South 374 430 20,700 2,100 Climbing Cleveland Center
Fri 11:50:12 AM 42.0878 -83.2386 197° South 394 453 22,700 2,450 Climbing Cleveland Center
Fri 11:51:12 AM 41.9886 -83.2819 198° South 380 437 25,600 2,200 Climbing Cleveland Center
Fri 11:52:12 AM 41.8917 -83.3253 198° South 370 426 27,100 1,550 Climbing Cleveland Center
Fri 11:53:12 AM 41.7925 -83.3739 200° South 375 432 28,700 1,700 Climbing Cleveland Center
Fri 11:54:12 AM 41.6892 -83.4194 198° South 381 438 30,500 1,500 Climbing Cleveland Center
Fri 11:55:12 AM 41.5839 -83.4647 198° South 393 452 31,700 1,250 Climbing Cleveland Center
Fri 11:56:12 AM 41.4764 -83.5156 200° South 405 466 33,000 1,400 Climbing Cleveland Center
Fri 11:57:12 AM 41.3667 -83.5658 199° South 410 472 34,500 1,500 Climbing Cleveland Center
Fri 11:58:12 AM 41.2589 -83.6133 198° South 410 472 36,000 1,600 Climbing Cleveland Center
Fri 11:59:12 AM 41.1514 -83.6581 197° South 410 472 37,700 1,047 Climbing Cleveland Center
Fri 12:01:04 PM 40.9553 -83.7478 199° South 410 472 39,000 448 Climbing Indianapolis Center
Fri 12:02:06 PM 40.8397 -83.7986 198° South 431 496 39,000  Level Indianapolis Center
Fri 12:03:08 PM 40.7247 -83.8550 200° South 437 503 39,000  Level Indianapolis Center
Fri 12:04:10 PM 40.5975 -83.9419 207° Southwest 438 504 39,000  Level Indianapolis Center
Fri 12:05:12 PM 40.4900 -84.0150 207° Southwest 435 501 39,000 97 Level Indianapolis Center
Fri 12:06:14 PM 40.3833 -84.0878 207° Southwest 431 496 39,200 387 Climbing Indianapolis Center
Fri 12:07:16 PM 40.2783 -84.1586 207° Southwest 424 488 39,800 387 Climbing Indianapolis Center
Fri 12:08:18 PM 40.1725 -84.2278 207° Southwest 423 487 40,000 97 Climbing Indianapolis Center
Fri 12:09:20 PM 40.0661 -84.2986 207° Southwest 427 491 40,000  Level Indianapolis Center
Fri 12:10:22 PM 39.9408 -84.3789 206° Southwest 428 493 40,000  Level Indianapolis Center
Fri 12:11:24 PM 39.8325 -84.4497 207° Southwest 431 496 40,000  Level Indianapolis Center
Fri 12:12:26 PM 39.7253 -84.5197 207° Southwest 429 494 40,000  Level Indianapolis Center
Fri 12:13:28 PM 39.6189 -84.5894 207° Southwest 428 493 40,000  Level Indianapolis Center
Fri 12:14:30 PM 39.5131 -84.6569 206° Southwest 424 488 40,000  Level Indianapolis Center
Fri 12:15:32 PM 39.4075 -84.7258 207° Southwest 422 486 40,000  Level Indianapolis Center
Fri 12:16:33 PM 39.3003 -84.7936 206° Southwest 424 488 40,000  Level Indianapolis Center
Fri 12:17:35 PM 39.1767 -84.8719 206° Southwest 423 487 40,000  Level Indianapolis Center
Fri 12:18:37 PM 39.0692 -84.9411 207° Southwest 416 479 40,000  Level Indianapolis Center
Fri 12:19:39 PM 38.9644 -85.0072 206° Southwest 418 481 40,000  Level Indianapolis Center
Fri 12:20:41 PM 38.8611 -85.0728 206° Southwest 414 476 40,000  Level Indianapolis Center
Fri 12:21:43 PM 38.7575 -85.1394 207° Southwest 415 478 40,000  Level Indianapolis Center
Fri 12:22:45 PM 38.6539 -85.2036 206° Southwest 414 476 40,000  Level Indianapolis Center
Fri 12:23:47 PM 38.5436 -85.2725 206° Southwest 415 478 40,000  Level Indianapolis Center
Fri 12:24:49 PM 38.4414 -85.3367 206° Southwest 409 471 40,000  Level Indianapolis Center
Fri 12:25:51 PM 38.3347 -85.3925 202° Southwest 411 473 40,000  Level Indianapolis Center
Fri 12:26:52 PM 38.2233 -85.4367 197° South 413 475 40,000  Level Indianapolis Center
Fri 12:27:54 PM 38.1119 -85.4811 197° South 416 479 40,000  Level Indianapolis Center
Fri 12:28:56 PM 37.9786 -85.5333 197° South 415 478 40,000  Level Indianapolis Center
Fri 12:29:58 PM 37.8661 -85.5758 197° South 418 481 40,000  Level Indianapolis Center
Fri 12:30:59 PM 37.7561 -85.6258 200° South 418 481 40,000  Level Indianapolis Center
Fri 12:32:01 PM 37.6533 -85.6936 208° Southwest 415 478 40,000  Level Indianapolis Center
Fri 12:33:03 PM 37.5500 -85.7597 207° Southwest 415 478 40,000  Level Indianapolis Center
Fri 12:34:05 PM 37.4478 -85.8242 207° Southwest 408 470 40,000  Level Indianapolis Center
Fri 12:35:07 PM 37.3325 -85.8983 207° Southwest 412 474 40,000  Level Indianapolis Center
Fri 12:36:09 PM 37.2289 -85.9625 206° Southwest 411 473 40,000  Level Indianapolis Center
Fri 12:37:10 PM 37.1253 -86.0278 207° Southwest 412 474 40,000  Level Indianapolis Center
Fri 12:38:12 PM 37.0208 -86.0936 207° Southwest 414 476 40,000  Level Indianapolis Center
Fri 12:38:44 PM 36.9719 -86.1217 205° Southwest 413 475 40,000  Level Memphis Center
Fri 12:39:44 PM 36.8661 -86.1897 207° Southwest 419 482 40,000  Level Memphis Center
Fri 12:40:44 PM 36.7558 -86.2600 207° Southwest 419 482 40,000  Level Memphis Center
Fri 12:41:44 PM 36.6514 -86.3197 205° Southwest 419 482 40,000  Level Memphis Center
Fri 12:42:44 PM 36.5494 -86.3842 207° Southwest 419 482 40,000  Level Memphis Center
Fri 12:43:44 PM 36.4431 -86.4461 205° Southwest 419 482 40,000  Level Memphis Center
Fri 12:44:44 PM 36.3386 -86.5081 206° Southwest 419 482 40,000  Level Memphis Center
Fri 12:45:44 PM 36.2322 -86.5747 207° Southwest 419 482 40,000  Level Memphis Center
Fri 12:46:44 PM 36.1381 -86.6331 207° Southwest 419 482 40,000  Level Memphis Center
Fri 12:47:44 PM 36.0317 -86.6969 206° Southwest 419 482 40,000  Level Memphis Center
Fri 12:48:44 PM 35.9311 -86.7603 207° Southwest 419 482 40,000  Level Memphis Center
Fri 12:49:44 PM 35.8267 -86.8239 206° Southwest 419 482 40,000  Level Memphis Center
Fri 12:50:44 PM 35.7119 -86.8925 206° Southwest 419 482 40,000  Level Memphis Center
Fri 12:51:44 PM 35.6094 -86.9556 207° Southwest 419 482 40,000  Level Memphis Center
Fri 12:52:44 PM 35.5047 -87.0161 205° Southwest 424 488 40,000  Level Memphis Center
Fri 12:53:44 PM 35.4000 -87.0814 207° Southwest 424 488 40,000  Level Memphis Center
Fri 12:54:44 PM 35.3075 -87.1358 206° Southwest 416 479 40,000  Level Memphis Center
Fri 12:55:44 PM 35.2028 -87.1958 205° Southwest 416 479 40,000  Level Memphis Center
Fri 12:56:44 PM 35.0856 -87.2664 206° Southwest 427 491 40,000  Level Memphis Center
Fri 12:57:44 PM 34.9828 -87.3258 205° Southwest 421 484 40,000  Level Memphis Center
Fri 12:58:44 PM 34.8903 -87.3822 207° Southwest 421 484 40,000  Level Memphis Center
Fri 12:59:44 PM 34.7872 -87.4392 204° Southwest 416 479 40,000  Level Memphis Center
Fri 01:00:44 PM 34.6886 -87.4981 206° Southwest 411 473 40,000  Level Memphis Center
Fri 01:01:44 PM 34.5856 -87.5544 204° Southwest 400 460 40,000  Level Memphis Center
Fri 01:02:44 PM 34.4886 -87.6106 206° Southwest 394 453 40,000  Level Memphis Center
Fri 01:03:44 PM 34.3836 -87.6719 206° Southwest 399 459 40,000  Level Memphis Center
Fri 01:04:44 PM 34.2825 -87.7303 205° Southwest 406 467 40,000  Level Memphis Center
Fri 01:05:44 PM 34.1711 -87.7939 205° Southwest 406 467 40,000  Level Memphis Center
Fri 01:06:44 PM 34.0703 -87.8522 206° Southwest 411 473 40,000  Level Memphis Center
Fri 01:07:44 PM 33.9608 -87.9153 206° Southwest 411 473 40,000  Level Memphis Center
Fri 01:08:44 PM 33.8597 -87.9733 205° Southwest 406 467 40,000  Level Memphis Center
Fri 01:09:44 PM 33.7564 -88.0361 207° Southwest 412 474 40,000  Level Memphis Center
Fri 01:10:44 PM 33.6511 -88.0939 205° Southwest 418 481 40,000 -100 Level Memphis Center
Fri 01:11:44 PM 33.5500 -88.1514 205° Southwest 418 481 39,800 -400 Descending Memphis Center
Fri 01:12:44 PM 33.4672 -88.1983 205° Southwest 418 481 39,200 -1,000 Descending Memphis Center
Fri 01:13:44 PM 33.3597 -88.2631 207° Southwest 413 475 37,800 -1,650 Descending Memphis Center
Fri 01:14:44 PM 33.2564 -88.3178 204° Southwest 413 475 35,900 -1,900 Descending Memphis Center
Fri 01:15:44 PM 33.1550 -88.3769 206° Southwest 413 475 34,000 -1,950 Descending Memphis Center
Fri 01:16:44 PM 33.0514 -88.4339 205° Southwest 408 470 32,000 -2,000 Descending Memphis Center
Fri 01:17:44 PM 32.9542 -88.4906 206° Southwest 401 461 30,000 -2,000 Descending Memphis Center
Fri 01:18:44 PM 32.8508 -88.5447 204° Southwest 401 461 28,000 -2,150 Descending Memphis Center
Fri 01:19:44 PM 32.7597 -88.5958 205° Southwest 401 461 25,700 -2,000 Descending Memphis Center
Fri 01:20:44 PM 32.6372 -88.6600 204° Southwest 401 461 24,000 -850 Descending Memphis Center
Fri 01:21:44 PM 32.5358 -88.7186 206° Southwest 401 461 24,000 -650 Level Memphis Center
Fri 01:22:44 PM 32.4342 -88.7772 206° Southwest 408 470 22,700 -2,050 Descending Memphis Center
Fri 01:23:44 PM 32.3411 -88.8281 205° Southwest 399 459 19,900 -3,100 Descending Memphis Center
Fri 01:24:44 PM 32.2497 -88.8736 203° Southwest 375 432 16,500 -3,650 Descending Memphis Center
Fri 01:25:44 PM 32.1625 -88.9217 205° Southwest 358 412 12,600 -2,675 Descending Memphis Center
Fri 01:27:30 PM 32.0483 -88.9958 209° Southwest 287 330 9,100 -1,964 Descending Houston Center
Fri 01:28:32 PM 31.9911 -89.0517 220° Southwest 273 314 7,100 -2,129 Descending Houston Center
Fri 01:29:34 PM 31.9258 -89.1050 215° Southwest 259 298 4,700 -2,016 Descending Houston Center
Fri 01:30:37 PM 31.8728 -89.1489 215° Southwest 248 285 2,900 -1,104 Descending Houston Center
Fri 01:31:39 PM 31.8231 -89.1903 215° Southwest 237 273 2,400 -290 Descending Houston Center
Fri 01:32:41 PM 31.8186 -89.2475 265° West 219 252 2,300 -48 Descending Houston Center
Fri 01:33:43 PM 31.8361 -89.3192 286° West 208 239 2,300  Level Houston Center
Fri 01:35:00 PM 31.7280 -89.2221 143° Southeast  Level Estimated

Login

Don't have an account? Register now (free) for customized features, flight alerts, and more!